AirNav   TITAN Aviation Fuels
 
 1240 users online  

SN52 Pilot Pointe Estates Airport
Douglass, Kansas, USA

GOING TO DOUGLASS?


FAA INFORMATION EFFECTIVE 15 JULY 2021

Location

FAA Identifier: SN52
Lat/Long: 37-28-45.1250N 097-00-45.5000W
37-28.752083N 097-00.758333W
37.4792014,-97.0126389
(estimated)
Elevation: 1237 ft. / 377 m (estimated)
Variation: 07E (1985)
From city: 2 miles S of DOUGLASS, KS
Time zone: UTC -5 (UTC -6 during Standard Time)
Zip code: 67039

Airport Operations

Airport use: Private use. Permission required prior to landing
Activation date: 04/1991
Control tower: no
ARTCC: KANSAS CITY CENTER
FSS: WICHITA FLIGHT SERVICE STATION
Attendance: UNATNDD
Wind indicator: yes
Segmented circle: no

Airport Communications

WX AWOS-3PT at 3AU (12 nm N): 124.175 (316-733-6696)
WX AWOS-3PT at BEC (16 nm NW): 119.45 (316-515-7116)
WX AWOS-3 at 1K1 (18 nm N): 118.3 (316-530-6004)
WX ASOS at WLD (19 nm S): 118.025 (620-221-9121)
WX ASOS at AAO (19 nm NW): 134.025 (316-636-2541)
WX AWOS-3P at EQA (20 nm NE): 120.875 (316-322-8095)

Nearby radio navigation aids

VOR radial/distance  VOR name  Freq  Var
ICTr113/31.5WICHITA VORTAC113.8007E

Airport Services

Runway Information

Runway 18/36

Dimensions: 2400 x 60 ft. / 732 x 18 m
Surface: turf
Runway edge markings: 18/36 THRS MKD WITH 1 FT PAINTED POSTS AT EACH CORNER.
RUNWAY 18  RUNWAY 36
Latitude: 37-28.950000N37-28.554167N
Longitude: 097-00.758333W097-00.758333W
Elevation: 1237.0 ft.1222.0 ft.
Traffic pattern: leftleft

Airport Ownership and Management from official FAA records

Ownership: Privately-owned
Owner: FRED LEEPER
9188 SW 240TH
DOUGLASS, KS 67039
Phone (316) 304-3895
Manager: FRED LEEPER
9188 SW 240TH
DOUGLASS, KS 67039
Phone (316) 304-3895

Additional Remarks

FOR CD CTC WICHITA APCH AT 316-350-1520.

Instrument Procedures

There are no published instrument procedures at SN52.

Some nearby airports with instrument procedures:

3AU - Augusta Municipal Airport (12 nm N)
KIAB - Mc Connell Air Force Base (15 nm NW)
KCEA - Cessna Aircraft Field Airport (15 nm NW)
KBEC - Beech Factory Airport (16 nm NW)
1K1 - Lloyd Stearman Field Airport (18 nm N)
KWLD - Strother Field Airport (19 nm S)
KAAO - Colonel James Jabara Airport (19 nm NW)
KEQA - El Dorado/Capt Jack Thomas Memorial Airport (20 nm NE)
 
Loc | Ops | Rwys | IFR | FBO | Links
Com | Nav | Svcs | Stats | Notes
Area around SN52 (Pilot Pointe Estates Airport)
 
Road maps at: MapQuest Bing Google
 
Aerial photo
WARNING: Photo may not be current or correct
Aerial photo of SN52 (Pilot Pointe Estates Airport)
Photo by Paul D. Fiebich
Photo taken 22-Apr-2016
looking north.

Do you have a better or more recent aerial photo of Pilot Pointe Estates Airport that you would like to share? If so, please send us your photo.

 
Sectional chart

 
Airport distance calculator
Flying to Pilot Pointe Estates Airport? Find the distance to fly.

From to SN52

Sunrise and sunset
Times for 05-Aug-2021
 Local
(UTC-5)
 Zulu
(UTC)
Morning civil twilight06:0811:08
Sunrise06:3711:37
Sunset20:3101:31
Evening civil twilight21:0002:00

Current date and time
Zulu (UTC)  05-Aug-2021 13:17:33
Local (UTC-5)  05-Aug-2021 08:17:33
 
METAR
K3AU 
12nm N 
051250Z AUTO 18003KT 10SM CLR 20/16 A3008 RMK AO2
KIAB 
15nm NW 
051256Z AUTO 20006KT 10SM FEW200 22/17 A3008 RMK AO2 SLP176 T02170171 $
KBEC 
16nm NW 
051255Z AUTO 17006KT 10SM CLR 21/17 A3008 RMK AO2 T02140167
K1K1 
18nm N 
051255Z AUTO 20005KT 10SM CLR 21/17 A3008 RMK AO2 T02060166
KWLD 
19nm S 
051254Z AUTO 00000KT 8SM BKN100 22/18 A3010 RMK AO2 SLP181 T02170183
KAAO 
19nm NW 
051254Z AUTO 19009KT 10SM CLR 23/16 A3007 RMK AO2 SLP169 T02280161
KEQA 
20nm NE 
051255Z AUTO 19006KT 10SM CLR 22/17 A3008 RMK AO2
KICT 
22nm NW 
051253Z 18006KT 9SM SCT100 22/17 A3007 RMK AO2 SLP171 T02170172
TAF
KIAB 
15nm NW 
051000Z 0510/0616 18012KT 9999 SCT080 BKN180 QNH3004INS BECMG 0520/0521 17010KT 9999 FEW120 QNH2995INS BECMG 0614/0615 21015KT 9999 SKC QNH2996INS TX31/0520Z TN19/0610Z
NOTAMs
Click for the latest NOTAMs
NOTAMs are issued by the DoD/FAA and will open in a separate window not controlled by AirNav.

 

 
 

Would you like to see your business listed on this page?

 If your business provides an interesting product or service to pilots, flight crews, aircraft, or users of the Pilot Pointe Estates Airport, you should consider listing it here.  To start the listing process, click on the button below
 
Add a business
 

Other Pages about Pilot Pointe Estates Airport

Update a link
 
Copyright © AirNav, LLC. All rights reserved. Privacy Policy  Contact